Time;durP1;ratioP1;P1;durP2;ratioP2;P2;SDS_P1;SDS_P2;PMS_P1;PMS_P2;Temp;Humidity;BMP_temperature;BMP_pressure;BME280_temperature;BME280_humidity;BME280_pressure;Samples;Min_cycle;Max_cycle;Signal;HPM_P1;HPM_P2
2023/11/08 00:01:39;;;;;;;14.80;3.80;;;;;;;7.84;80.89;99948.50;108945;1266;22561;-81
2023/11/08 00:04:10;;;;;;;14.60;3.90;;;;;;;7.81;81.15;99953.08;108881;1266;22543;-80
2023/11/08 00:06:39;;;;;;;20.10;4.50;;;;;;;7.79;81.09;99953.50;108852;1267;22543;-81
2023/11/08 00:09:12;;;;;;;14.80;3.70;;;;;;;7.75;81.16;99956.30;108927;1257;25570;-80
2023/11/08 00:11:41;;;;;;;17.50;4.60;;;;;;;7.72;81.14;99959.39;108841;1267;24229;-80
2023/11/08 00:14:11;;;;;;;20.10;4.40;;;;;;;7.67;81.23;99959.92;108875;1267;22551;-80
2023/11/08 00:16:42;;;;;;;18.80;3.80;;;;;;;7.64;81.46;99958.45;108723;1272;225674;-81
2023/11/08 00:19:11;;;;;;;15.40;3.50;;;;;;;7.64;81.74;99962.92;108948;1253;22938;-80
2023/11/08 00:21:40;;;;;;;16.70;3.70;;;;;;;7.64;81.85;99960.45;108932;1271;22540;-80
2023/11/08 00:24:09;;;;;;;13.20;3.20;;;;;;;7.64;82.03;99960.30;108968;1267;22551;-81
2023/11/08 00:26:37;;;;;;;27.40;5.10;;;;;;;7.65;82.32;99958.11;109026;1257;24192;-80
2023/11/08 00:29:06;;;;;;;18.00;3.20;;;;;;;7.66;82.49;99960.35;108901;1272;23229;-81
2023/11/08 00:31:35;;;;;;;15.60;3.70;;;;;;;7.67;82.64;99960.79;108990;1269;22535;-80
2023/11/08 00:34:04;;;;;;;14.20;3.30;;;;;;;7.67;82.81;99960.54;109023;1266;22579;-80
2023/11/08 00:36:32;;;;;;;15.20;3.70;;;;;;;7.68;82.91;99965.83;108976;1266;22749;-81
2023/11/08 00:39:04;;;;;;;15.30;3.10;;;;;;;7.69;83.06;99964.27;108944;1272;24415;-81
2023/11/08 00:41:33;;;;;;;11.40;2.70;;;;;;;7.70;83.21;99959.79;108976;1266;22578;-81
2023/11/08 00:44:02;;;;;;;12.60;3.20;;;;;;;7.72;83.46;99955.09;108757;1272;25277;-81
2023/11/08 00:46:31;;;;;;;12.30;2.70;;;;;;;7.73;83.41;99958.22;108883;1272;22552;-81
2023/11/08 00:49:13;;;;;;;14.60;2.90;;;;;;;7.74;83.49;99954.91;108830;1269;23024;-81
2023/11/08 00:51:42;;;;;;;12.10;2.30;;;;;;;7.76;83.58;99954.20;108743;1272;22532;-80
2023/11/08 00:54:11;;;;;;;14.70;2.60;;;;;;;7.76;83.62;99950.92;108694;1273;25486;-80
2023/11/08 00:56:39;;;;;;;11.60;2.90;;;;;;;7.77;83.58;99951.44;108774;1269;23378;-80
2023/11/08 00:59:12;;;;;;;10.00;2.60;;;;;;;7.77;83.70;99954.04;108906;1265;22595;-81
2023/11/08 01:01:42;;;;;;;14.70;3.10;;;;;;;7.78;83.80;99954.66;108917;1269;23270;-81
2023/11/08 01:04:11;;;;;;;11.90;3.10;;;;;;;7.78;83.94;99955.38;109038;1269;25410;-81
2023/11/08 01:06:41;;;;;;;12.80;3.20;;;;;;;7.79;84.09;99954.43;108898;1266;22512;-81
2023/11/08 01:09:11;;;;;;;10.10;3.10;;;;;;;7.78;84.18;99954.71;108951;1269;23063;-81
2023/11/08 01:11:42;;;;;;;13.60;3.50;;;;;;;7.78;84.22;99955.27;108938;1272;22624;-81
2023/11/08 01:14:13;;;;;;;10.70;2.30;;;;;;;7.79;84.24;99957.05;108928;1272;22534;-80
2023/11/08 01:16:41;;;;;;;14.00;2.80;;;;;;;7.80;84.40;99952.59;108931;1266;22538;-81
2023/11/08 01:19:12;;;;;;;10.90;2.60;;;;;;;7.81;84.41;99956.04;108942;1265;23076;-81
2023/11/08 01:21:40;;;;;;;;;;;;;;;7.82;84.57;99957.58;108941;1266;26572;-80
2023/11/08 01:24:12;;;;;;;9.10;2.30;;;;;;;7.82;84.58;99950.61;108783;1266;23479;-81
2023/11/08 01:26:43;;;;;;;13.50;2.60;;;;;;;7.83;84.63;99949.34;108959;1267;23147;-81
2023/11/08 01:29:11;;;;;;;11.40;2.30;;;;;;;7.86;84.78;99946.81;109046;1267;22556;-80
2023/11/08 01:31:43;;;;;;;13.30;2.60;;;;;;;7.88;84.81;99945.60;109059;1269;23978;-81
2023/11/08 01:34:13;;;;;;;10.80;3.00;;;;;;;7.90;84.87;99943.38;109000;1257;24206;-81
2023/11/08 01:36:46;;;;;;;10.00;2.50;;;;;;;7.92;84.84;99941.70;108996;1272;22542;-81
2023/11/08 01:39:17;;;;;;;12.00;2.80;;;;;;;7.93;84.82;99938.61;109003;1269;22564;-81
2023/11/08 01:41:53;;;;;;;9.40;2.40;;;;;;;7.94;85.01;99945.87;108933;1266;22554;-81
2023/11/08 01:44:22;;;;;;;18.30;3.10;;;;;;;7.96;85.15;99944.30;108763;1270;23361;-80
2023/11/08 01:46:54;;;;;;;9.90;2.60;;;;;;;7.95;85.01;99942.25;108876;1269;23116;-81
2023/11/08 01:49:33;;;;;;;11.00;3.00;;;;;;;7.95;85.14;99943.13;108846;1266;22582;-80
2023/11/08 01:52:10;;;;;;;13.30;3.60;;;;;;;7.96;85.31;99944.91;108762;1268;22643;-81
2023/11/08 01:54:49;;;;;;;13.40;2.90;;;;;;;7.96;85.26;99946.02;108805;1266;23400;-81
2023/11/08 01:57:29;;;;;;;13.40;3.30;;;;;;;7.96;85.48;99945.86;108907;1265;22542;-81
2023/11/08 01:59:58;;;;;;;11.30;3.00;;;;;;;7.96;85.63;99947.42;108951;1267;23767;-81
2023/11/08 02:02:28;;;;;;;10.60;2.30;;;;;;;7.97;85.74;99949.95;109165;1269;22737;-81
2023/11/08 02:04:58;;;;;;;14.20;3.40;;;;;;;7.98;85.96;99950.05;109259;1267;23809;-81
2023/11/08 02:07:26;;;;;;;12.30;3.60;;;;;;;8.00;86.06;99951.77;109803;1269;22605;-81
2023/11/08 02:09:56;;;;;;;12.70;3.70;;;;;;;8.01;86.19;99950.94;110058;1267;22651;-82
2023/11/08 02:12:27;;;;;;;14.50;3.40;;;;;;;8.01;86.23;99951.98;110056;1269;22499;-81
2023/11/08 02:15:11;;;;;;;10.20;3.00;;;;;;;8.01;86.39;99953.16;109096;1266;22563;-81
2023/11/08 02:17:41;;;;;;;12.30;3.30;;;;;;;8.01;86.48;99953.00;108645;1267;22559;-80
2023/11/08 02:20:12;;;;;;;13.50;3.80;;;;;;;8.02;86.41;99953.05;108764;1266;24189;-81
2023/11/08 02:22:43;;;;;;;12.20;3.40;;;;;;;8.03;86.50;99956.09;108733;1265;22621;-81
2023/11/08 02:25:17;;;;;;;12.20;3.00;;;;;;;8.03;86.55;99958.50;108826;1267;22577;-81
2023/11/08 02:27:49;;;;;;;12.60;3.00;;;;;;;8.03;86.60;99964.11;108876;1268;22552;-81
2023/11/08 02:30:17;;;;;;;8.80;2.60;;;;;;;8.02;86.68;99966.29;108944;1269;22576;-80
2023/11/08 02:32:49;;;;;;;9.70;3.00;;;;;;;8.02;86.72;99966.14;108898;1267;22564;-80
2023/11/08 02:35:18;;;;;;;11.50;2.70;;;;;;;8.03;86.72;99970.63;108934;1251;22583;-80
2023/11/08 02:37:48;;;;;;;9.90;2.40;;;;;;;8.02;86.85;99971.39;108923;1272;25458;-81
2023/11/08 02:40:19;;;;;;;10.30;3.40;;;;;;;8.01;86.94;99974.99;108881;1272;24185;-80
2023/11/08 02:42:48;;;;;;;10.00;2.50;;;;;;;8.02;87.06;99975.61;108683;1272;22546;-81
2023/11/08 02:45:16;;;;;;;10.20;3.00;;;;;;;8.02;87.06;99974.26;108805;1270;22556;-81
2023/11/08 02:47:49;;;;;;;10.10;2.90;;;;;;;8.02;87.21;99972.44;108795;1263;22617;-81
2023/11/08 02:50:20;;;;;;;10.10;2.90;;;;;;;8.02;87.17;99976.48;108828;1270;22561;-81
2023/11/08 02:52:49;;;;;;;10.60;3.30;;;;;;;8.01;87.26;99973.42;108736;1272;22549;-81
2023/11/08 02:55:17;;;;;;;11.40;3.30;;;;;;;8.00;87.40;99973.77;108749;1267;25248;-81
2023/11/08 02:57:47;;;;;;;10.50;2.70;;;;;;;8.01;87.36;99974.59;108703;1272;22712;-81
2023/11/08 03:00:23;;;;;;;12.00;2.90;;;;;;;8.03;87.52;99975.77;108759;1266;22533;-81
2023/11/08 03:02:52;;;;;;;10.90;3.00;;;;;;;8.05;87.56;99976.74;108670;1272;22534;-81
2023/11/08 03:05:22;;;;;;;16.40;3.30;;;;;;;8.06;87.66;99978.75;108731;1269;22543;-81
2023/11/08 03:07:56;;;;;;;9.80;3.20;;;;;;;8.06;87.59;99979.46;108749;1266;24215;-81
2023/11/08 03:10:26;;;;;;;9.10;2.80;;;;;;;8.07;87.64;99985.70;108881;1269;22498;-81
2023/11/08 03:12:57;;;;;;;14.90;3.10;;;;;;;8.08;87.74;99980.17;108842;1267;23293;-81
2023/11/08 03:15:25;;;;;;;11.30;3.20;;;;;;;8.09;87.73;99984.64;108859;1269;24147;-81
2023/11/08 03:17:54;;;;;;;8.70;2.60;;;;;;;8.10;87.77;99986.19;108876;1266;23048;-80
2023/11/08 03:20:24;;;;;;;12.00;2.70;;;;;;;8.11;87.69;99992.27;108812;1270;22635;-80
2023/11/08 03:22:53;;;;;;;11.50;2.80;;;;;;;8.11;87.80;99992.44;108765;1272;23271;-81
2023/11/08 03:25:21;;;;;;;12.20;3.00;;;;;;;8.11;87.76;99994.45;108645;1272;22507;-81
2023/11/08 03:27:49;;;;;;;8.90;2.40;;;;;;;8.13;87.80;99996.47;108871;1272;23207;-81
2023/11/08 03:30:23;;;;;;;10.60;2.40;;;;;;;8.13;87.79;99999.96;108909;1270;22580;-81
2023/11/08 03:32:54;;;;;;;9.10;2.40;;;;;;;8.12;87.67;100001.41;108718;1273;22588;-81
2023/11/08 03:35:23;;;;;;;8.80;2.40;;;;;;;8.11;87.80;100003.77;108962;1272;22678;-80
2023/11/08 03:37:51;;;;;;;8.50;2.50;;;;;;;8.09;87.85;100005.84;108862;1272;25379;-81
2023/11/08 03:40:27;;;;;;;10.00;2.40;;;;;;;8.09;87.89;100007.29;108957;1272;22522;-81
2023/11/08 03:42:58;;;;;;;9.40;2.20;;;;;;;8.09;87.91;100010.84;108927;1272;22784;-81
2023/11/08 03:45:28;;;;;;;7.90;2.00;;;;;;;8.10;87.97;100012.02;109025;1272;22790;-81
2023/11/08 03:47:59;;;;;;;12.90;2.70;;;;;;;8.11;87.91;100008.46;109039;1263;23397;-81
2023/11/08 03:50:33;;;;;;;8.80;2.00;;;;;;;8.11;88.04;100009.27;108871;1269;27614;-81
2023/11/08 03:53:04;;;;;;;8.20;2.50;;;;;;;8.10;87.95;100008.42;108803;1272;23367;-81
2023/11/08 03:55:35;;;;;;;8.60;2.90;;;;;;;8.08;87.88;100003.46;108670;1272;22553;-80
2023/11/08 03:58:05;;;;;;;15.30;2.50;;;;;;;8.07;87.93;100002.38;108706;1272;24230;-80
2023/11/08 04:00:36;;;;;;;9.70;2.70;;;;;;;8.06;87.88;100002.57;108849;1270;22110;-80
2023/11/08 04:03:06;;;;;;;10.20;2.20;;;;;;;8.04;88.03;100003.13;108741;1272;23268;-80
2023/11/08 04:05:34;;;;;;;10.70;2.10;;;;;;;8.03;88.01;100003.70;108910;1251;22684;-81
2023/11/08 04:08:08;;;;;;;8.40;2.10;;;;;;;8.01;88.10;100001.45;108763;1264;22558;-80
2023/11/08 04:10:40;;;;;;;9.90;2.40;;;;;;;8.01;88.20;99999.86;108889;1272;22585;-80
2023/11/08 04:13:08;;;;;;;9.00;2.60;;;;;;;8.01;88.13;100000.73;108907;1272;22522;-81
2023/11/08 04:15:37;;;;;;;11.10;2.00;;;;;;;7.99;88.07;100002.89;108917;1272;22514;-80
2023/11/08 04:18:09;;;;;;;8.30;2.10;;;;;;;7.97;87.90;100002.91;108829;1272;25852;-81
2023/11/08 04:20:39;;;;;;;11.30;2.30;;;;;;;7.96;87.97;100004.85;108685;1273;22566;-81
2023/11/08 04:23:09;;;;;;;8.90;2.40;;;;;;;7.94;87.72;100002.36;108842;1270;22889;-80
2023/11/08 04:25:38;;;;;;;10.60;2.00;;;;;;;7.91;87.87;100006.27;108956;1272;24410;-81
2023/11/08 04:28:07;;;;;;;6.50;1.70;;;;;;;7.89;87.71;100009.96;108880;1272;23180;-81
2023/11/08 04:30:37;;;;;;;8.90;2.00;;;;;;;7.86;87.59;100012.90;109014;1272;22576;-81
2023/11/08 04:33:07;;;;;;;9.20;2.20;;;;;;;7.82;87.60;100013.86;108952;1272;25471;-81
2023/11/08 04:35:37;;;;;;;8.00;1.60;;;;;;;7.77;87.43;100010.42;108993;1272;22576;-81
2023/11/08 04:38:14;;;;;;;10.30;2.40;;;;;;;7.74;87.40;100017.89;109047;1272;23213;-81
2023/11/08 04:40:45;;;;;;;7.60;1.70;;;;;;;7.69;87.31;100017.16;109015;1272;22549;-81
2023/11/08 04:43:13;;;;;;;5.00;1.30;;;;;;;7.64;87.34;100017.13;109055;1272;23328;-80
2023/11/08 04:45:42;;;;;;;9.70;2.00;;;;;;;7.59;87.24;100021.08;108817;1272;22804;-81
2023/11/08 04:48:12;;;;;;;6.10;1.60;;;;;;;7.55;87.34;100021.92;108903;1272;22632;-78
2023/11/08 04:50:44;;;;;;;4.60;1.40;;;;;;;7.50;87.23;100020.63;109061;1267;22771;-80
2023/11/08 04:53:13;;;;;;;6.90;1.60;;;;;;;7.45;87.27;100023.61;108706;1272;22557;-79
2023/11/08 04:55:42;;;;;;;5.30;1.30;;;;;;;7.42;87.29;100022.39;107804;1272;22583;-79
2023/11/08 04:58:10;;;;;;;9.10;1.60;;;;;;;7.40;87.33;100022.57;108628;1272;22670;-79
2023/11/08 05:00:38;;;;;;;6.80;1.40;;;;;;;7.37;87.28;100021.17;107844;1272;24315;-79
2023/11/08 05:03:10;;;;;;;4.70;1.30;;;;;;;7.33;87.35;100025.63;107790;1269;22536;-80
2023/11/08 05:05:39;;;;;;;6.40;1.50;;;;;;;7.31;87.41;100023.02;108424;1267;24548;-78
2023/11/08 05:08:08;;;;;;;6.30;1.30;;;;;;;7.29;87.32;100026.35;107691;1267;22827;-78
2023/11/08 05:10:37;;;;;;;7.20;1.60;;;;;;;7.27;87.37;100024.09;107900;1267;22623;-78
2023/11/08 05:13:09;;;;;;;4.40;1.40;;;;;;;7.23;87.32;100024.96;107850;1267;22548;-79
2023/11/08 05:15:38;;;;;;;8.30;1.40;;;;;;;7.20;87.35;100028.41;108753;1267;22531;-79
2023/11/08 05:18:07;;;;;;;6.20;1.30;;;;;;;7.17;87.45;100027.58;108650;1266;22605;-78
2023/11/08 05:20:37;;;;;;;5.60;1.80;;;;;;;7.15;87.46;100030.70;108115;1267;22525;-77
2023/11/08 05:23:05;;;;;;;6.90;1.70;;;;;;;7.12;87.37;100033.10;107881;1270;25401;-79
2023/11/08 05:25:41;;;;;;;6.40;1.30;;;;;;;7.10;87.32;100029.63;107950;1272;24020;-80
2023/11/08 05:28:11;;;;;;;5.50;1.40;;;;;;;7.06;87.27;100034.79;108079;1267;25396;-80
2023/11/08 05:30:40;;;;;;;5.50;1.60;;;;;;;7.03;87.42;100033.02;108038;1272;25262;-80
2023/11/08 05:33:11;;;;;;;6.20;1.60;;;;;;;6.99;87.36;100036.98;107943;1267;22620;-80
2023/11/08 05:35:38;;;;;;;;;;;;;;;6.96;87.62;100036.86;108549;1272;24187;-78
2023/11/08 05:38:09;;;;;;;5.80;1.30;;;;;;;6.92;87.58;100041.73;108449;1269;22578;-78
2023/11/08 05:40:37;;;;;;;8.20;1.40;;;;;;;6.88;87.64;100042.52;108791;1272;24796;-78
2023/11/08 05:43:06;;;;;;;8.80;1.80;;;;;;;6.87;87.71;100042.83;108026;1268;22546;-78
2023/11/08 05:45:35;;;;;;;6.80;1.20;;;;;;;6.85;87.79;100046.37;110751;1272;22477;-78
2023/11/08 05:48:06;;;;;;;9.50;1.60;;;;;;;6.84;87.89;100049.42;110711;1272;22197;-76
2023/11/08 05:50:35;;;;;;;6.70;1.60;;;;;;;6.85;87.99;100056.30;110697;1272;23016;-76
2023/11/08 05:53:05;;;;;;;8.30;1.30;;;;;;;6.85;88.00;100057.80;110680;1272;22348;-76
2023/11/08 05:55:35;;;;;;;11.70;1.90;;;;;;;6.85;87.98;100059.16;110714;1270;22460;-76
2023/11/08 05:58:05;;;;;;;8.30;1.40;;;;;;;6.84;88.00;100063.07;110670;1272;22258;-76
2023/11/08 06:00:34;;;;;;;6.10;1.50;;;;;;;6.83;88.05;100059.79;110739;1267;22006;-76
2023/11/08 06:03:06;;;;;;;8.90;2.00;;;;;;;6.81;87.92;100060.08;110740;1272;22813;-77
2023/11/08 06:05:35;;;;;;;5.80;1.40;;;;;;;6.81;88.05;100062.06;110665;1272;23412;-76
2023/11/08 06:08:04;;;;;;;7.30;1.50;;;;;;;6.80;88.12;100061.17;110743;1272;22193;-77
2023/11/08 06:10:34;;;;;;;4.60;1.20;;;;;;;6.82;88.15;100065.22;110754;1272;23034;-77
2023/11/08 06:13:03;;;;;;;5.60;1.30;;;;;;;6.83;88.27;100062.23;110785;1272;22788;-76
2023/11/08 06:15:31;;;;;;;4.90;1.40;;;;;;;6.84;88.25;100068.30;110750;1272;22929;-77
2023/11/08 06:18:00;;;;;;;5.10;1.30;;;;;;;6.86;88.23;100067.45;110733;1272;22118;-76
2023/11/08 06:20:28;;;;;;;7.30;2.00;;;;;;;6.88;88.34;100070.66;110738;1266;22354;-76
2023/11/08 06:22:56;;;;;;;7.90;1.80;;;;;;;6.91;88.50;100075.79;110740;1272;23119;-76
2023/11/08 06:25:24;;;;;;;7.00;1.50;;;;;;;6.93;88.65;100080.94;110769;1267;23094;-76
2023/11/08 06:27:52;;;;;;;7.00;1.30;;;;;;;6.94;88.71;100081.35;110740;1272;22167;-76
2023/11/08 06:30:22;;;;;;;4.20;1.10;;;;;;;6.97;88.88;100080.92;110749;1272;22188;-76
2023/11/08 06:32:52;;;;;;;6.60;1.60;;;;;;;6.99;88.81;100081.00;110727;1267;22160;-77
2023/11/08 06:35:20;;;;;;;6.70;1.50;;;;;;;7.02;88.88;100086.37;110729;1257;22350;-76
2023/11/08 06:37:51;;;;;;;7.00;1.60;;;;;;;7.04;88.85;100094.52;110741;1272;22263;-77
2023/11/08 06:40:21;;;;;;;8.50;1.90;;;;;;;7.06;88.97;100096.40;110700;1267;22145;-77
2023/11/08 06:42:50;;;;;;;6.60;1.20;;;;;;;7.08;89.04;100095.48;110721;1272;22179;-77
2023/11/08 06:45:20;;;;;;;5.80;1.10;;;;;;;7.09;89.16;100093.91;110780;1272;23023;-77
2023/11/08 06:47:48;;;;;;;3.80;1.10;;;;;;;7.11;89.26;100098.77;110682;1272;22043;-76
2023/11/08 06:50:17;;;;;;;5.90;1.30;;;;;;;7.12;89.51;100095.36;110744;1272;22280;-76
2023/11/08 06:52:46;;;;;;;4.70;1.10;;;;;;;7.14;89.49;100100.36;110716;1272;22607;-76
2023/11/08 06:55:15;;;;;;;4.50;1.10;;;;;;;7.15;89.62;100098.64;110709;1272;22147;-76
2023/11/08 06:57:46;;;;;;;7.60;1.30;;;;;;;7.17;89.62;100103.70;110493;1272;23066;-76
2023/11/08 07:00:22;;;;;;;4.00;1.10;;;;;;;7.19;89.54;100107.36;110748;1267;22864;-76
2023/11/08 07:02:51;;;;;;;4.90;1.20;;;;;;;7.19;89.47;100106.19;110678;1270;22249;-76
2023/11/08 07:05:22;;;;;;;5.10;1.20;;;;;;;7.19;89.40;100110.48;110727;1272;23043;-77
2023/11/08 07:07:53;;;;;;;6.00;1.10;;;;;;;7.21;89.41;100111.66;110734;1272;22207;-76
2023/11/08 07:10:24;;;;;;;5.10;1.20;;;;;;;7.23;89.59;100108.14;110687;1272;24213;-77
2023/11/08 07:12:57;;;;;;;5.90;1.10;;;;;;;7.28;89.58;100106.39;110739;1272;22754;-76
2023/11/08 07:15:27;;;;;;;9.30;1.00;;;;;;;7.30;89.63;100109.30;110725;1272;22655;-76
2023/11/08 07:17:56;;;;;;;7.00;1.00;;;;;;;7.34;89.81;100107.70;110760;1272;22149;-77
2023/11/08 07:20:29;;;;;;;6.30;0.90;;;;;;;7.39;89.97;100107.83;110731;1272;22158;-77
2023/11/08 07:22:57;;;;;;;4.30;0.80;;;;;;;7.44;89.88;100114.77;110681;1272;22207;-77
2023/11/08 07:25:26;;;;;;;5.60;0.90;;;;;;;7.48;89.98;100114.97;110699;1272;23231;-76
2023/11/08 07:27:58;;;;;;;6.10;1.00;;;;;;;7.53;89.84;100119.30;110696;1272;22745;-76
2023/11/08 07:30:27;;;;;;;4.50;0.80;;;;;;;7.59;89.99;100122.30;110770;1267;22172;-77
2023/11/08 07:32:55;;;;;;;6.20;0.90;;;;;;;7.65;90.11;100125.11;110744;1272;22170;-77
2023/11/08 07:35:26;;;;;;;2.60;0.70;;;;;;;7.70;89.78;100121.49;110744;1272;23100;-76
2023/11/08 07:37:54;;;;;;;6.30;0.90;;;;;;;7.75;89.87;100126.61;110545;1272;22380;-76
2023/11/08 07:40:23;;;;;;;4.40;1.20;;;;;;;7.79;89.66;100124.11;110649;1272;22197;-77
2023/11/08 07:42:55;;;;;;;2.50;0.70;;;;;;;7.85;89.74;100123.39;110753;1272;22244;-77
2023/11/08 07:45:29;;;;;;;3.60;0.80;;;;;;;7.88;89.74;100121.17;110748;1272;22335;-76
2023/11/08 07:48:01;;;;;;;4.10;0.80;;;;;;;7.91;89.43;100123.34;110763;1272;22268;-76
2023/11/08 07:50:30;;;;;;;2.70;0.80;;;;;;;7.94;89.50;100127.89;110725;1272;22450;-76
2023/11/08 07:53:07;;;;;;;6.70;1.30;;;;;;;7.96;89.37;100134.02;110648;1272;22393;-76
2023/11/08 07:55:38;;;;;;;3.80;0.90;;;;;;;7.99;89.48;100130.00;110752;1269;22538;-77
2023/11/08 07:58:09;;;;;;;4.30;1.10;;;;;;;8.04;89.68;100129.52;110791;1267;22286;-76
2023/11/08 08:00:45;;;;;;;4.50;0.90;;;;;;;8.09;89.68;100128.05;110764;1272;22212;-76
2023/11/08 08:03:14;;;;;;;4.10;1.10;;;;;;;8.13;89.43;100130.00;110734;1272;22230;-77
2023/11/08 08:05:45;;;;;;;3.00;0.90;;;;;;;8.19;89.57;100132.20;110699;1272;22184;-77
2023/11/08 08:08:18;;;;;;;3.40;0.80;;;;;;;8.25;89.60;100135.52;110738;1267;23058;-77
2023/11/08 08:10:48;;;;;;;2.90;0.80;;;;;;;8.30;89.49;100136.49;110695;1272;22188;-76
2023/11/08 08:13:21;;;;;;;3.60;0.90;;;;;;;8.34;89.17;100131.69;110757;1266;23165;-76
2023/11/08 08:15:51;;;;;;;4.60;0.80;;;;;;;8.39;89.08;100132.20;110676;1268;22320;-76
2023/11/08 08:18:25;;;;;;;4.40;0.90;;;;;;;8.43;89.04;100135.95;110720;1272;22275;-76
2023/11/08 08:20:54;;;;;;;3.90;0.70;;;;;;;8.48;88.97;100141.00;110685;1272;23160;-76
2023/11/08 08:23:22;;;;;;;7.20;1.10;;;;;;;8.53;88.83;100141.41;110730;1266;22207;-76
2023/11/08 08:26:00;;;;;;;3.30;0.80;;;;;;;8.58;88.68;100145.23;110760;1267;22321;-76
2023/11/08 08:28:34;;;;;;;6.10;1.00;;;;;;;8.62;88.56;100141.40;110734;1272;23194;-76
2023/11/08 08:31:05;;;;;;;4.60;0.80;;;;;;;8.66;88.63;100141.98;110659;1272;22188;-76
2023/11/08 08:33:37;;;;;;;2.60;0.70;;;;;;;8.72;88.51;100144.48;110754;1272;22169;-76
2023/11/08 08:36:06;;;;;;;5.30;0.90;;;;;;;8.77;88.40;100145.86;110750;1272;22363;-76
2023/11/08 08:38:37;;;;;;;2.80;0.70;;;;;;;8.82;88.39;100143.21;110493;1267;22995;-76
2023/11/08 08:41:05;;;;;;;4.40;0.80;;;;;;;8.89;88.20;100139.38;110698;1272;22177;-76
2023/11/08 08:43:34;;;;;;;4.70;0.80;;;;;;;8.96;88.37;100138.95;110751;1266;23258;-76
2023/11/08 08:46:05;;;;;;;5.10;0.70;;;;;;;9.04;87.89;100142.11;110741;1272;22937;-76
2023/11/08 08:48:33;;;;;;;5.30;0.90;;;;;;;9.10;87.70;100145.30;110482;1266;22237;-77
2023/11/08 08:51:02;;;;;;;3.40;0.70;;;;;;;9.16;87.17;100152.08;110624;1272;22253;-77
2023/11/08 08:53:31;;;;;;;4.10;0.60;;;;;;;9.22;86.97;100148.80;110742;1267;23194;-76
2023/11/08 08:55:59;;;;;;;2.90;0.70;;;;;;;9.25;86.82;100148.44;110499;1272;22240;-77
2023/11/08 08:58:28;;;;;;;7.60;0.90;;;;;;;9.30;86.50;100149.89;110671;1266;22422;-76
2023/11/08 09:00:56;;;;;;;4.20;0.60;;;;;;;9.34;86.44;100154.49;110726;1272;22213;-76
2023/11/08 09:03:30;;;;;;;4.10;0.50;;;;;;;9.37;86.23;100157.45;110721;1272;23102;-76
2023/11/08 09:05:59;;;;;;;4.90;0.70;;;;;;;9.40;86.28;100153.72;110756;1270;22166;-77
2023/11/08 09:08:30;;;;;;;2.60;0.50;;;;;;;9.42;85.60;100156.70;110665;1254;22325;-76
2023/11/08 09:10:58;;;;;;;2.70;0.60;;;;;;;9.44;85.64;100154.85;110755;1269;22218;-76
2023/11/08 09:13:28;;;;;;;3.10;0.50;;;;;;;9.47;85.63;100156.12;110762;1272;22395;-76
2023/11/08 09:16:01;;;;;;;2.90;0.70;;;;;;;9.50;85.11;100156.13;110766;1272;22325;-76
2023/11/08 09:18:31;;;;;;;4.60;0.70;;;;;;;9.54;85.22;100157.63;110733;1272;22185;-76
2023/11/08 09:20:59;;;;;;;4.40;0.70;;;;;;;9.57;84.76;100156.13;110744;1272;22450;-76
2023/11/08 09:23:29;;;;;;;3.80;0.60;;;;;;;9.61;84.68;100155.41;110729;1269;22629;-77
2023/11/08 09:25:58;;;;;;;3.10;0.60;;;;;;;9.66;84.52;100153.68;110509;1272;22459;-77
2023/11/08 09:28:27;;;;;;;6.70;0.60;;;;;;;9.69;84.22;100151.17;110647;1272;22345;-77
2023/11/08 09:30:58;;;;;;;4.10;0.60;;;;;;;9.74;84.20;100152.29;110743;1272;23041;-77
2023/11/08 09:33:29;;;;;;;3.60;0.60;;;;;;;9.79;83.81;100149.41;110667;1272;22331;-77
2023/11/08 09:35:59;;;;;;;5.50;0.70;;;;;;;9.85;83.48;100147.85;110746;1272;22280;-77
2023/11/08 09:38:30;;;;;;;6.30;0.70;;;;;;;9.90;83.65;100149.06;110739;1266;23005;-76
2023/11/08 09:40:58;;;;;;;3.10;0.60;;;;;;;9.96;83.03;100149.27;110751;1266;22370;-77
2023/11/08 09:43:28;;;;;;;4.50;0.80;;;;;;;10.01;82.65;100151.77;110708;1272;22353;-76
2023/11/08 09:45:59;;;;;;;3.90;0.70;;;;;;;10.06;82.52;100149.59;110739;1266;22180;-77
2023/11/08 09:48:27;;;;;;;5.20;0.70;;;;;;;10.11;82.26;100150.38;110755;1272;22393;-77
2023/11/08 09:50:58;;;;;;;5.60;0.70;;;;;;;10.17;82.47;100149.92;110638;1272;22204;-76
2023/11/08 09:53:26;;;;;;;2.30;0.30;;;;;;;10.20;81.38;100146.69;110746;1272;23447;-77
2023/11/08 09:55:59;;;;;;;4.60;0.40;;;;;;;10.18;81.06;100144.88;110493;1272;22224;-77
2023/11/08 09:58:33;;;;;;;3.30;0.60;;;;;;;10.15;81.14;100144.88;110724;1266;22363;-77
2023/11/08 10:01:05;;;;;;;2.90;0.40;;;;;;;10.13;81.22;100140.64;110696;1272;22285;-77
2023/11/08 10:03:35;;;;;;;3.70;0.40;;;;;;;10.16;80.87;100139.30;110699;1266;22244;-76
2023/11/08 10:06:05;;;;;;;3.20;0.30;;;;;;;10.18;80.22;100136.41;110745;1272;22226;-76
2023/11/08 10:08:34;;;;;;;3.40;0.50;;;;;;;10.19;80.36;100133.64;110752;1266;23141;-76
2023/11/08 10:11:10;;;;;;;6.40;0.50;;;;;;;10.21;80.38;100128.20;110770;1272;22239;-76
2023/11/08 10:13:48;;;;;;;3.30;0.40;;;;;;;10.24;79.85;100125.80;110755;1272;22184;-76
2023/11/08 10:16:24;;;;;;;2.40;0.40;;;;;;;10.26;79.83;100123.37;110814;1268;22236;-76
2023/11/08 10:18:56;;;;;;;3.40;0.50;;;;;;;10.31;79.36;100123.98;110524;1272;23170;-76
2023/11/08 10:21:26;;;;;;;2.90;0.50;;;;;;;10.38;79.65;100118.45;110726;1272;22323;-76
2023/11/08 10:23:56;;;;;;;3.30;0.50;;;;;;;10.45;79.50;100115.02;110750;1272;22189;-76
2023/11/08 10:26:27;;;;;;;1.10;0.20;;;;;;;10.56;79.05;100115.52;110778;1272;22395;-76
2023/11/08 10:28:58;;;;;;;2.00;0.20;;;;;;;10.66;79.18;100114.10;110684;1266;22384;-76
2023/11/08 10:31:34;;;;;;;3.50;0.50;;;;;;;10.76;78.88;100113.16;110754;1267;22168;-76
2023/11/08 10:34:06;;;;;;;4.70;0.50;;;;;;;10.82;78.60;100115.30;110705;1272;22965;-76
2023/11/08 10:36:39;;;;;;;4.40;0.50;;;;;;;10.86;77.84;100109.83;110702;1272;22182;-76
2023/11/08 10:39:13;;;;;;;1.70;0.30;;;;;;;10.83;77.68;100109.06;110746;1272;22211;-76
2023/11/08 10:41:43;;;;;;;3.70;0.50;;;;;;;10.81;77.64;100112.31;110710;1266;22357;-76
2023/11/08 10:44:22;;;;;;;2.20;0.30;;;;;;;10.78;77.11;100107.30;110739;1272;22633;-76
2023/11/08 10:46:57;;;;;;;2.00;0.50;;;;;;;10.76;77.51;100107.41;110763;1265;22521;-76
2023/11/08 10:49:27;;;;;;;4.70;0.50;;;;;;;10.75;77.50;100104.52;110742;1272;22334;-76
2023/11/08 10:51:58;;;;;;;2.50;0.40;;;;;;;10.74;76.95;100107.65;110732;1272;22441;-76
2023/11/08 10:54:32;;;;;;;2.70;0.30;;;;;;;10.74;76.81;100107.64;110709;1272;22337;-76
2023/11/08 10:57:03;;;;;;;2.80;0.30;;;;;;;10.73;76.14;100105.76;110739;1272;22179;-76
2023/11/08 10:59:35;;;;;;;3.30;0.40;;;;;;;10.74;76.24;100105.92;110590;1266;22265;-76
2023/11/08 11:02:20;;;;;;;3.30;0.30;;;;;;;10.77;76.13;100104.96;110685;1272;22837;-76
2023/11/08 11:04:53;;;;;;;2.90;0.40;;;;;;;10.81;75.90;100103.17;110728;1272;22171;-76
2023/11/08 11:07:25;;;;;;;3.40;0.30;;;;;;;10.83;76.15;100100.27;110679;1266;22137;-76
2023/11/08 11:09:54;;;;;;;;;;;;;;;10.84;75.54;100102.38;110746;1272;22408;-76
2023/11/08 11:12:38;;;;;;;3.20;0.30;;;;;;;10.87;75.67;100098.91;110509;1272;22234;-76
2023/11/08 11:15:13;;;;;;;2.70;0.40;;;;;;;10.89;75.34;100099.27;110772;1266;22207;-76
2023/11/08 11:17:49;;;;;;;3.50;0.40;;;;;;;10.92;75.22;100099.66;110746;1272;23327;-76
2023/11/08 11:20:21;;;;;;;3.10;0.30;;;;;;;10.93;74.78;100095.25;110662;1272;22133;-76
2023/11/08 11:22:50;;;;;;;1.50;0.30;;;;;;;10.93;74.62;100099.52;110634;1272;22260;-76
2023/11/08 11:25:48;;;;;;;2.20;0.40;;;;;;;10.93;75.01;100094.64;110791;1266;23290;-76
2023/11/08 11:28:52;;;;;;;3.10;0.40;;;;;;;10.92;74.71;100094.94;110613;1272;22259;-76
2023/11/08 11:31:35;;;;;;;4.60;0.40;;;;;;;10.89;74.17;100097.58;110765;1272;23392;-76
2023/11/08 11:34:37;;;;;;;3.20;0.50;;;;;;;10.87;73.88;100099.17;110751;1272;23326;-76
2023/11/08 11:37:08;;;;;;;4.00;0.60;;;;;;;10.83;74.04;100099.20;110693;1272;22677;-76
2023/11/08 11:39:39;;;;;;;6.70;0.50;;;;;;;10.80;73.86;100102.24;110764;1272;22421;-76
2023/11/08 11:42:22;;;;;;;4.60;0.40;;;;;;;10.75;74.01;100105.94;110685;1272;22319;-76